San Andreas, California
Current Conditions -  °F | °C
As of 11:55 AM on Thursday 23 Oct 2014 (Local Time) from KO22 Reporting Station
Clear Clear  
Wind Chill: 23°   Ceiling: Unl
Heat Index: 23°   Visibility: 10mi
Dew Point:   Wind: 3mph
Humidity: 27%   Direction: 220°SW
Pressure: 30.07"   Gusts: NA
Location:  38.2°N, 120.68°W
Report Text: KO22 231855Z AUTO 22003KT 10SM CLR 23/03 A3007 RMK AO1
Loading
Personal Weather Stations






























Interactive Weather Map
Tropical Storm Tracking
New forecast layout! Learn more

10-Day Weather Forecast

Advertisements
Track Severe Weather on mobile